createdAt,value
2018-09-29T00:00:00.652Z,0
2018-09-29T00:01:00.364Z,0
2018-09-29T00:02:00.347Z,0
2018-09-29T00:03:00.861Z,0
2018-09-29T00:04:00.567Z,0
2018-09-29T00:05:00.966Z,0
2018-09-29T00:06:00.269Z,0
2018-09-29T00:06:59.995Z,0
2018-09-29T00:08:00.821Z,0
2018-09-29T00:09:00.232Z,0
2018-09-29T00:10:00.475Z,0
2018-09-29T00:11:00.443Z,0
2018-09-29T00:12:00.165Z,0
2018-09-29T00:12:59.874Z,0
2018-09-29T00:14:00.128Z,0
2018-09-29T00:15:00.643Z,0
2018-09-29T00:16:00.090Z,0
2018-09-29T00:17:00.073Z,0
2018-09-29T00:18:00.325Z,0
2018-09-29T00:19:00.038Z,0
2018-09-29T00:20:00.022Z,0
2018-09-29T00:20:59.736Z,0
2018-09-29T00:22:00.251Z,0
2018-09-29T00:23:00.501Z,0
2018-09-29T00:23:59.945Z,0
2018-09-29T00:25:00.192Z,0
2018-09-29T00:26:00.186Z,0
2018-09-29T00:27:00.417Z,0
2018-09-29T00:28:00.132Z,0
2018-09-29T00:29:00.181Z,0
2018-09-29T00:30:00.366Z,0
2018-09-29T00:31:00.355Z,0
2018-09-29T00:32:00.063Z,0
2018-09-29T00:33:00.038Z,0
2018-09-29T00:33:59.761Z,0
2018-09-29T00:35:00.002Z,0
2018-09-29T00:35:59.986Z,0
2018-09-29T00:36:59.971Z,0
2018-09-29T00:37:59.961Z,0
2018-09-29T00:38:59.665Z,0
2018-09-29T00:39:59.918Z,0
2018-09-29T00:40:59.626Z,0
2018-09-29T00:41:59.358Z,0
2018-09-29T00:42:59.600Z,0
2018-09-29T00:44:00.110Z,0
2018-09-29T00:44:59.562Z,0
2018-09-29T00:45:59.806Z,0
2018-09-29T00:46:59.522Z,0
2018-09-29T00:47:59.502Z,0
2018-09-29T00:48:59.750Z,0
2018-09-29T00:49:59.742Z,0
2018-09-29T00:50:59.185Z,0
2018-09-29T00:51:59.689Z,0
2018-09-29T00:52:59.944Z,0
2018-09-29T00:53:59.387Z,0
2018-09-29T00:54:59.905Z,0
2018-09-29T00:55:59.884Z,0
2018-09-29T00:56:59.598Z,0
2018-09-29T00:57:59.316Z,0
2018-09-29T00:58:59.557Z,0
2018-09-29T00:59:59.743Z,0
2018-09-29T01:00:59.526Z,0
2018-09-29T01:01:59.510Z,0
2018-09-29T01:02:59.486Z,0
2018-09-29T01:03:59.475Z,0
2018-09-29T01:04:59.455Z,0
2018-09-29T01:05:58.906Z,0
2018-09-29T01:06:59.147Z,0
2018-09-29T01:07:59.125Z,0
2018-09-29T01:08:58.848Z,0
2018-09-29T01:09:59.102Z,0
2018-09-29T01:10:59.070Z,0
2018-09-29T01:11:59.315Z,0
2018-09-29T01:12:59.037Z,0
2018-09-29T01:13:59.544Z,0
2018-09-29T01:14:59.004Z,0
2018-09-29T01:15:59.242Z,0
2018-09-29T01:16:59.501Z,0
2018-09-29T01:17:59.470Z,0
2018-09-29T01:18:59.189Z,0
2018-09-29T01:19:59.166Z,0
2018-09-29T01:20:58.887Z,0
2018-09-29T01:21:59.395Z,0
2018-09-29T01:22:59.112Z,0
2018-09-29T01:23:59.358Z,0
2018-09-29T01:24:59.340Z,0
2018-09-29T01:25:59.061Z,0
2018-09-29T01:26:58.773Z,0
2018-09-29T01:27:59.284Z,0
2018-09-29T01:28:59.007Z,0
2018-09-29T01:29:58.982Z,0
2018-09-29T01:30:58.959Z,0
2018-09-29T01:31:58.954Z,0
2018-09-29T01:32:58.936Z,0
2018-09-29T01:33:58.908Z,0
2018-09-29T01:34:58.624Z,0
2018-09-29T01:35:58.610Z,0
2018-09-29T01:36:59.111Z,0
2018-09-29T01:37:58.867Z,0
2018-09-29T01:38:59.083Z,0
2018-09-29T01:39:58.797Z,0
2018-09-29T01:40:58.773Z,0
2018-09-29T01:41:58.499Z,0
2018-09-29T01:42:58.472Z,0
2018-09-29T01:43:58.720Z,0
2018-09-29T01:44:58.701Z,0
2018-09-29T01:45:58.941Z,0
2018-09-29T01:46:58.663Z,0
2018-09-29T01:47:58.645Z,0
2018-09-29T01:48:58.888Z,0
2018-09-29T01:49:58.881Z,0
2018-09-29T01:50:58.324Z,0
2018-09-29T01:51:58.570Z,0
2018-09-29T01:52:58.285Z,0
2018-09-29T01:53:58.806Z,0
2018-09-29T01:54:58.777Z,0
2018-09-29T01:55:58.758Z,0
2018-09-29T01:56:58.732Z,0
2018-09-29T01:57:58.453Z,0
2018-09-29T01:58:57.906Z,0
2018-09-29T01:59:58.417Z,0
2018-09-29T02:00:58.125Z,0
2018-09-29T02:01:58.694Z,0
2018-09-29T02:02:58.102Z,0
2018-09-29T02:03:58.601Z,0
2018-09-29T02:04:58.053Z,0
2018-09-29T02:05:58.295Z,0
2018-09-29T02:06:58.547Z,0
2018-09-29T02:07:57.845Z,0
2018-09-29T02:08:58.503Z,0
2018-09-29T02:09:58.491Z,0
2018-09-29T02:10:58.467Z,0
2018-09-29T02:11:57.925Z,0
2018-09-29T02:12:58.163Z,0
2018-09-29T02:13:57.881Z,0
2018-09-29T02:14:58.396Z,0
2018-09-29T02:15:58.114Z,0
2018-09-29T02:16:57.828Z,0
2018-09-29T02:17:58.344Z,0
2018-09-29T02:18:58.054Z,0
2018-09-29T02:19:58.037Z,0
2018-09-29T02:20:57.756Z,0
2018-09-29T02:21:57.472Z,0
2018-09-29T02:22:57.711Z,0
2018-09-29T02:23:58.217Z,0
2018-09-29T02:24:57.931Z,0
2018-09-29T02:25:57.657Z,0
2018-09-29T02:26:57.630Z,0
2018-09-29T02:27:57.615Z,0
2018-09-29T02:28:57.719Z,0
2018-09-29T02:29:57.316Z,0
2018-09-29T02:30:57.833Z,0
2018-09-29T02:31:58.062Z,0
2018-09-29T02:32:57.523Z,0
2018-09-29T02:33:57.505Z,0
2018-09-29T02:34:58.010Z,0
2018-09-29T02:35:57.725Z,0
2018-09-29T02:36:57.968Z,0
2018-09-29T02:37:57.953Z,0
2018-09-29T02:38:57.400Z,0
2018-09-29T02:39:57.118Z,0
2018-09-29T02:40:57.904Z,0
2018-09-29T02:41:57.885Z,0
2018-09-29T02:42:57.848Z,0
2018-09-29T02:43:57.044Z,0
2018-09-29T02:44:57.811Z,0
2018-09-29T02:45:57.005Z,0
2018-09-29T02:46:57.814Z,0
2018-09-29T02:47:57.496Z,0
2018-09-29T02:48:57.213Z,0
2018-09-29T02:49:57.446Z,0
2018-09-29T02:50:57.433Z,0
2018-09-29T02:51:57.148Z,0
2018-09-29T02:52:57.668Z,0
2018-09-29T02:53:57.118Z,0
2018-09-29T02:54:57.614Z,0
2018-09-29T02:55:57.073Z,0
2018-09-29T02:56:57.325Z,0
2018-09-29T02:57:57.557Z,0
2018-09-29T02:58:57.019Z,0
2018-09-29T03:00:12.399Z,0
2018-09-29T03:00:56.970Z,0
2018-09-29T03:01:57.216Z,0
2018-09-29T03:02:57.479Z,0
2018-09-29T03:03:56.664Z,0
2018-09-29T03:04:56.630Z,0
2018-09-29T03:05:56.880Z,0
2018-09-29T03:06:56.860Z,0
2018-09-29T03:07:57.104Z,0
2018-09-29T03:08:56.849Z,0
2018-09-29T03:09:57.115Z,0
2018-09-29T03:10:57.043Z,0
2018-09-29T03:11:57.029Z,0
2018-09-29T03:12:57.012Z,0
2018-09-29T03:13:57.243Z,0
2018-09-29T03:14:56.988Z,0
2018-09-29T03:15:57.211Z,0
2018-09-29T03:16:56.656Z,0
2018-09-29T03:17:56.639Z,0
2018-09-29T03:18:56.621Z,0
2018-09-29T03:19:56.600Z,0
2018-09-29T03:20:57.113Z,0
2018-09-29T03:21:57.093Z,0
2018-09-29T03:22:56.881Z,0
2018-09-29T03:23:57.051Z,0
2018-09-29T03:24:56.771Z,0
2018-09-29T03:25:56.747Z,0
2018-09-29T03:26:56.472Z,0
2018-09-29T03:27:56.453Z,0
2018-09-29T03:28:56.434Z,0
2018-09-29T03:29:56.403Z,0
2018-09-29T03:30:56.405Z,0
2018-09-29T03:31:57.473Z,0
2018-09-29T03:32:56.627Z,0
2018-09-29T03:33:56.598Z,0
2018-09-29T03:34:56.573Z,0
2018-09-29T03:35:56.029Z,0
2018-09-29T03:36:56.549Z,0
2018-09-29T03:37:56.258Z,0
2018-09-29T03:38:56.233Z,0
2018-09-29T03:39:56.750Z,0
2018-09-29T03:40:56.454Z,0
2018-09-29T03:41:56.698Z,0
2018-09-29T03:42:56.167Z,0
2018-09-29T03:43:56.410Z,0
2018-09-29T03:44:56.377Z,0
2018-09-29T03:45:56.092Z,0
2018-09-29T03:46:56.076Z,0
2018-09-29T03:47:56.328Z,0
2018-09-29T03:48:56.040Z,0
2018-09-29T03:49:56.275Z,0
2018-09-29T03:50:55.996Z,0
2018-09-29T03:51:56.284Z,0
2018-09-29T03:52:56.220Z,0
2018-09-29T03:53:56.210Z,0
2018-09-29T03:54:56.447Z,0
2018-09-29T03:55:55.895Z,0
2018-09-29T03:56:56.395Z,0
2018-09-29T03:57:55.870Z,0
2018-09-29T03:58:56.380Z,0
2018-09-29T03:59:55.835Z,0
2018-09-29T04:00:56.062Z,0
2018-09-29T04:01:56.328Z,0
2018-09-29T04:02:55.495Z,0
2018-09-29T04:03:56.263Z,0
2018-09-29T04:04:56.261Z,0
2018-09-29T04:05:55.959Z,0
2018-09-29T04:06:55.944Z,0
2018-09-29T04:07:55.919Z,0
2018-09-29T04:08:55.642Z,0
2018-09-29T04:09:55.624Z,0
2018-09-29T04:10:55.861Z,0
2018-09-29T04:11:56.108Z,0
2018-09-29T04:12:55.832Z,0
2018-09-29T04:13:56.485Z,0
2018-09-29T04:14:55.777Z,0
2018-09-29T04:15:55.499Z,0
2018-09-29T04:16:56.002Z,0
2018-09-29T04:17:55.728Z,0
2018-09-29T04:18:55.979Z,0
2018-09-29T04:19:55.795Z,0
2018-09-29T04:20:55.397Z,0
2018-09-29T04:21:55.907Z,0
2018-09-29T04:22:55.628Z,0
2018-09-29T04:23:55.081Z,0
2018-09-29T04:24:55.580Z,0
2018-09-29T04:25:55.568Z,0
2018-09-29T04:26:55.548Z,0
2018-09-29T04:27:55.524Z,0
2018-09-29T04:28:55.253Z,0
2018-09-29T04:29:55.748Z,0
2018-09-29T04:30:55.202Z,0
2018-09-29T04:31:55.449Z,0
2018-09-29T04:32:55.165Z,0
2018-09-29T04:33:55.149Z,0
2018-09-29T04:34:55.125Z,0
2018-09-29T04:35:54.841Z,0
2018-09-29T04:36:55.344Z,0
2018-09-29T04:37:55.344Z,0
2018-09-29T04:38:55.303Z,0
2018-09-29T04:39:55.032Z,0
2018-09-29T04:40:55.537Z,0
2018-09-29T04:41:54.989Z,0
2018-09-29T04:42:55.234Z,0
2018-09-29T04:43:55.213Z,0
2018-09-29T04:44:55.233Z,0
2018-09-29T04:45:54.911Z,0
2018-09-29T04:46:54.622Z,0
2018-09-29T04:47:54.869Z,0
2018-09-29T04:48:54.841Z,0
2018-09-29T04:49:55.359Z,0
2018-09-29T04:50:54.803Z,0
2018-09-29T04:51:54.525Z,0
2018-09-29T04:52:54.766Z,0
2018-09-29T04:53:54.480Z,0
2018-09-29T04:54:55.251Z,0
2018-09-29T04:55:54.968Z,0
2018-09-29T04:56:55.230Z,0
2018-09-29T04:57:54.939Z,4
2018-09-29T04:58:54.911Z,0
2018-09-29T04:59:54.896Z,0
2018-09-29T05:00:54.868Z,4
2018-09-29T05:01:54.858Z,4
2018-09-29T05:02:54.826Z,4
2018-09-29T05:03:54.551Z,4
2018-09-29T05:04:54.261Z,8
2018-09-29T05:05:55.036Z,4
2018-09-29T05:06:54.752Z,8
2018-09-29T05:07:54.741Z,8
2018-09-29T05:08:55.024Z,12
2018-09-29T05:09:54.426Z,16
2018-09-29T05:10:54.405Z,16
2018-09-29T05:11:54.125Z,20
2018-09-29T05:12:54.626Z,24
2018-09-29T05:13:54.112Z,28
2018-09-29T05:14:54.338Z,36
2018-09-29T05:15:54.840Z,40
2018-09-29T05:16:54.555Z,44
2018-09-29T05:17:54.793Z,52
2018-09-29T05:18:54.248Z,60
2018-09-29T05:19:54.221Z,64
2018-09-29T05:20:54.351Z,80
2018-09-29T05:21:54.452Z,84
2018-09-29T05:22:54.692Z,92
2018-09-29T05:23:54.418Z,104
2018-09-29T05:24:54.662Z,112
2018-09-29T05:25:54.642Z,124
2018-09-29T05:26:54.623Z,136
2018-09-29T05:27:53.801Z,144
2018-09-29T05:28:54.046Z,160
2018-09-29T05:29:54.291Z,172
2018-09-29T05:30:54.152Z,188
2018-09-29T05:31:53.989Z,204
2018-09-29T05:32:54.500Z,220
2018-09-29T05:33:54.480Z,240
2018-09-29T05:34:54.204Z,260
2018-09-29T05:35:53.910Z,276
2018-09-29T05:36:53.617Z,296
2018-09-29T05:37:54.131Z,316
2018-09-29T05:38:53.582Z,332
2018-09-29T05:39:54.091Z,352
2018-09-29T05:40:53.543Z,376
2018-09-29T05:41:54.049Z,400
2018-09-29T05:42:53.766Z,420
2018-09-29T05:43:54.050Z,440
2018-09-29T05:44:53.987Z,464
2018-09-29T05:45:53.699Z,480
2018-09-29T05:46:53.688Z,504
2018-09-29T05:47:53.658Z,524
2018-09-29T05:48:54.176Z,544
2018-09-29T05:49:53.625Z,564
2018-09-29T05:50:54.139Z,588
2018-09-29T05:51:53.322Z,608
2018-09-29T05:52:53.828Z,624
2018-09-29T05:53:53.659Z,648
2018-09-29T05:54:53.795Z,672
2018-09-29T05:55:53.767Z,692
2018-09-29T05:56:53.757Z,712
2018-09-29T05:57:53.467Z,732
2018-09-29T05:58:53.173Z,752
2018-09-29T05:59:53.947Z,768
2018-09-29T06:00:53.665Z,788
2018-09-29T06:01:53.383Z,804
2018-09-29T06:02:53.890Z,824
2018-09-29T06:03:53.878Z,840
2018-09-29T06:04:53.321Z,856
2018-09-29T06:05:53.551Z,876
2018-09-29T06:06:53.613Z,892
2018-09-29T06:07:53.008Z,912
2018-09-29T06:08:53.501Z,936
2018-09-29T06:09:53.484Z,964
2018-09-29T06:10:53.757Z,984
2018-09-29T06:11:53.446Z,1008
2018-09-29T06:12:53.689Z,1036
2018-09-29T06:13:53.421Z,1060
2018-09-29T06:14:53.120Z,1080
2018-09-29T06:15:53.365Z,1100
2018-09-29T06:16:53.354Z,1124
2018-09-29T06:17:53.338Z,1152
2018-09-29T06:18:53.571Z,1172
2018-09-29T06:19:53.549Z,1196
2018-09-29T06:20:53.390Z,1220
2018-09-29T06:21:53.244Z,1248
2018-09-29T06:22:52.958Z,1284
2018-09-29T06:23:52.944Z,1316
2018-09-29T06:24:53.463Z,1352
2018-09-29T06:25:53.168Z,1376
2018-09-29T06:26:52.884Z,1396
2018-09-29T06:27:53.230Z,1408
2018-09-29T06:28:53.102Z,1412
2018-09-29T06:29:52.830Z,1416
2018-09-29T06:30:52.542Z,1428
2018-09-29T06:31:53.320Z,1444
2018-09-29T06:32:53.031Z,1452
2018-09-29T06:33:53.017Z,1464
2018-09-29T06:34:52.989Z,1480
2018-09-29T06:35:52.970Z,1480
2018-09-29T06:36:53.024Z,1488
2018-09-29T06:37:52.404Z,1508
2018-09-29T06:38:52.913Z,1520
2018-09-29T06:39:52.895Z,1540
2018-09-29T06:40:52.768Z,1556
2018-09-29T06:41:52.590Z,1568
2018-09-29T06:42:52.841Z,1584
2018-09-29T06:43:53.078Z,1588
2018-09-29T06:44:52.800Z,1604
2018-09-29T06:45:52.781Z,1620
2018-09-29T06:46:52.767Z,1644
2018-09-29T06:47:53.018Z,1656
2018-09-29T06:48:52.739Z,1668
2018-09-29T06:49:52.172Z,1692
2018-09-29T06:50:52.955Z,1712
2018-09-29T06:51:52.663Z,1736
2018-09-29T06:52:52.375Z,1756
2018-09-29T06:53:52.361Z,1776
2018-09-29T06:54:52.071Z,1784
2018-09-29T06:55:52.319Z,1800
2018-09-29T06:56:52.845Z,1808
2018-09-29T06:57:52.832Z,1820
2018-09-29T06:58:52.332Z,1832
2018-09-29T06:59:52.785Z,1848
2018-09-29T07:00:52.968Z,1860
2018-09-29T07:01:52.204Z,1864
2018-09-29T07:02:52.495Z,1864
2018-09-29T07:03:52.163Z,1856
2018-09-29T07:04:52.735Z,1852
2018-09-29T07:05:52.130Z,1848
2018-09-29T07:06:52.103Z,1856
2018-09-29T07:07:52.349Z,1864
2018-09-29T07:08:52.088Z,1864
2018-09-29T07:09:52.334Z,1868
2018-09-29T07:10:51.768Z,1868
2018-09-29T07:11:52.309Z,1860
2018-09-29T07:12:52.422Z,1852
2018-09-29T07:13:52.241Z,1852
2018-09-29T07:14:51.961Z,1880
2018-09-29T07:15:52.214Z,1896
2018-09-29T07:16:52.187Z,1916
2018-09-29T07:17:52.164Z,1940
2018-09-29T07:18:52.147Z,1960
2018-09-29T07:19:52.402Z,1984
2018-09-29T07:20:52.111Z,2028
2018-09-29T07:21:52.188Z,2060
2018-09-29T07:22:52.077Z,2100
2018-09-29T07:23:51.800Z,2116
2018-09-29T07:24:52.040Z,2124
2018-09-29T07:25:52.022Z,2120
2018-09-29T07:26:52.266Z,2116
2018-09-29T07:27:52.244Z,2116
2018-09-29T07:28:52.228Z,2112
2018-09-29T07:29:51.682Z,2112
2018-09-29T07:30:51.936Z,2112
2018-09-29T07:31:51.377Z,2116
2018-09-29T07:32:52.158Z,2116
2018-09-29T07:33:51.617Z,2104
2018-09-29T07:34:51.851Z,2092
2018-09-29T07:35:52.096Z,2088
2018-09-29T07:36:52.087Z,2092
2018-09-29T07:37:51.802Z,2100
2018-09-29T07:38:51.526Z,2104
2018-09-29T07:39:52.034Z,2128
2018-09-29T07:40:51.748Z,2160
2018-09-29T07:41:51.195Z,2184
2018-09-29T07:42:51.444Z,2192
2018-09-29T07:43:51.428Z,2204
2018-09-29T07:44:51.677Z,2220
2018-09-29T07:45:51.699Z,2232
2018-09-29T07:46:51.632Z,2256
2018-09-29T07:47:51.501Z,2284
2018-09-29T07:48:51.594Z,2308
2018-09-29T07:49:51.318Z,2348
2018-09-29T07:50:51.491Z,2384
2018-09-29T07:51:51.283Z,2420
2018-09-29T07:52:51.527Z,2424
2018-09-29T07:53:51.242Z,2432
2018-09-29T07:54:51.708Z,2432
2018-09-29T07:55:51.304Z,2436
2018-09-29T07:56:50.923Z,2428
2018-09-29T07:57:50.930Z,2404
2018-09-29T07:58:50.887Z,2388
2018-09-29T07:59:51.133Z,2320
2018-09-29T08:00:51.646Z,2320
2018-09-29T08:01:51.099Z,2368
2018-09-29T08:02:51.339Z,2456
2018-09-29T08:03:51.329Z,3896
2018-09-29T08:04:50.795Z,4824
2018-09-29T08:05:51.291Z,6212
2018-09-29T08:06:51.285Z,6640
2018-09-29T08:07:50.990Z,4236
2018-09-29T08:08:51.241Z,2624
2018-09-29T08:09:50.960Z,2448
2018-09-29T08:10:50.675Z,2424
2018-09-29T08:11:50.921Z,2404
2018-09-29T08:12:50.909Z,2432
2018-09-29T08:13:51.150Z,2440
2018-09-29T08:14:51.134Z,2428
2018-09-29T08:15:51.126Z,2412
2018-09-29T08:16:51.366Z,2400
2018-09-29T08:17:51.082Z,2416
2018-09-29T08:18:50.804Z,2596
2018-09-29T08:19:51.059Z,2736
2018-09-29T08:20:50.503Z,2644
2018-09-29T08:21:50.755Z,2544
2018-09-29T08:22:50.997Z,2772
2018-09-29T08:23:50.977Z,2832
2018-09-29T08:24:51.233Z,2412
2018-09-29T08:25:50.957Z,2332
2018-09-29T08:26:51.188Z,2276
2018-09-29T08:27:50.647Z,2264
2018-09-29T08:28:50.909Z,2260
2018-09-29T08:29:50.614Z,2244
2018-09-29T08:30:50.600Z,2244
2018-09-29T08:31:50.589Z,2248
2018-09-29T08:32:50.564Z,2264
2018-09-29T08:33:50.812Z,2288
2018-09-29T08:34:50.794Z,2320
2018-09-29T08:35:50.245Z,2364
2018-09-29T08:36:50.493Z,2408
2018-09-29T08:37:50.607Z,2456
2018-09-29T08:38:50.725Z,2472
2018-09-29T08:39:50.448Z,2528
2018-09-29T08:40:50.437Z,2588
2018-09-29T08:41:50.684Z,2692
2018-09-29T08:42:50.127Z,2912
2018-09-29T08:43:50.642Z,2812
2018-09-29T08:44:50.890Z,2712
2018-09-29T08:45:50.342Z,2688
2018-09-29T08:46:50.526Z,2816
2018-09-29T08:47:50.579Z,2764
2018-09-29T08:48:50.029Z,2700
2018-09-29T08:49:50.589Z,2676
2018-09-29T08:50:50.524Z,2660
2018-09-29T08:51:50.026Z,2600
2018-09-29T08:52:50.228Z,2552
2018-09-29T08:53:51.009Z,2552
2018-09-29T08:54:50.197Z,2556
2018-09-29T08:55:50.447Z,2548
2018-09-29T08:56:50.429Z,2548
2018-09-29T08:57:50.674Z,2588
2018-09-29T08:58:50.390Z,2628
2018-09-29T08:59:50.116Z,2696
2018-09-29T09:00:50.567Z,2744
2018-09-29T09:01:49.841Z,2784
2018-09-29T09:02:50.340Z,2812
2018-09-29T09:03:50.106Z,2900
2018-09-29T09:04:50.304Z,2960
2018-09-29T09:05:50.285Z,3020
2018-09-29T09:06:50.270Z,3052
2018-09-29T09:07:50.254Z,3072
2018-09-29T09:08:50.229Z,3088
2018-09-29T09:09:50.482Z,3072
2018-09-29T09:10:50.200Z,3052
2018-09-29T09:11:50.452Z,3012
2018-09-29T09:12:50.173Z,2984
2018-09-29T09:13:49.886Z,2972
2018-09-29T09:14:50.408Z,2932
2018-09-29T09:15:50.392Z,2928
2018-09-29T09:16:50.195Z,2928
2018-09-29T09:17:49.823Z,2964
2018-09-29T09:18:49.813Z,2984
2018-09-29T09:19:49.527Z,2988
2018-09-29T09:20:50.310Z,2988
2018-09-29T09:21:50.023Z,3052
2018-09-29T09:22:50.147Z,3064
2018-09-29T09:23:50.241Z,3064
2018-09-29T09:24:49.716Z,3048
2018-09-29T09:25:50.022Z,3056
2018-09-29T09:26:49.680Z,3076
2018-09-29T09:27:49.674Z,3116
2018-09-29T09:28:49.916Z,3148
2018-09-29T09:29:50.403Z,3440
2018-09-29T09:30:49.891Z,3224
2018-09-29T09:31:49.618Z,3180
2018-09-29T09:32:49.863Z,3088
2018-09-29T09:33:49.833Z,3020
2018-09-29T09:34:49.824Z,3036
2018-09-29T09:35:49.808Z,2972
2018-09-29T09:36:49.272Z,2860
2018-09-29T09:37:49.247Z,2896
2018-09-29T09:38:49.233Z,2960
2018-09-29T09:39:49.492Z,2880
2018-09-29T09:40:49.460Z,2832
2018-09-29T09:41:49.726Z,2872
2018-09-29T09:42:49.705Z,2944
2018-09-29T09:43:49.950Z,3056
2018-09-29T09:44:49.669Z,3072
2018-09-29T09:45:49.920Z,3072
2018-09-29T09:46:49.374Z,3044
2018-09-29T09:47:49.889Z,3020
2018-09-29T09:48:49.610Z,3000
2018-09-29T09:49:49.873Z,2964
2018-09-29T09:50:49.847Z,2928
2018-09-29T09:51:49.569Z,2912
2018-09-29T09:52:49.820Z,2900
2018-09-29T09:53:49.557Z,2900
2018-09-29T09:54:49.537Z,2924
2018-09-29T09:55:49.267Z,2984
2018-09-29T09:56:49.233Z,3128
2018-09-29T09:57:48.954Z,3308
2018-09-29T09:58:49.459Z,3112
2018-09-29T09:59:48.920Z,3136
2018-09-29T10:00:49.171Z,3156
2018-09-29T10:01:49.152Z,3176
2018-09-29T10:02:49.407Z,3188
2018-09-29T10:03:49.654Z,3188
2018-09-29T10:04:49.385Z,3208
2018-09-29T10:05:49.095Z,3208
2018-09-29T10:06:49.337Z,3248
2018-09-29T10:07:48.802Z,3224
2018-09-29T10:08:49.052Z,3188
2018-09-29T10:09:48.774Z,3156
2018-09-29T10:10:49.552Z,3140
2018-09-29T10:11:49.020Z,3164
2018-09-29T10:12:49.256Z,3228
2018-09-29T10:13:48.983Z,3252
2018-09-29T10:14:48.967Z,3272
2018-09-29T10:15:49.212Z,3776
2018-09-29T10:16:49.200Z,3568
2018-09-29T10:17:49.448Z,3404
2018-09-29T10:18:49.181Z,3460
2018-09-29T10:19:49.447Z,3544
2018-09-29T10:20:48.622Z,3708
2018-09-29T10:21:49.394Z,3704
2018-09-29T10:22:48.593Z,3716
2018-09-29T10:23:49.375Z,3812
2018-09-29T10:24:48.826Z,3816
2018-09-29T10:25:49.065Z,3700
2018-09-29T10:26:49.051Z,3680
2018-09-29T10:27:49.691Z,3696
2018-09-29T10:28:48.766Z,3728
2018-09-29T10:29:48.747Z,3752
2018-09-29T10:30:49.005Z,3760
2018-09-29T10:31:48.719Z,3676
2018-09-29T10:32:48.968Z,3624
2018-09-29T10:33:48.689Z,3588
2018-09-29T10:34:48.942Z,3604
2018-09-29T10:35:48.669Z,3612
2018-09-29T10:36:49.182Z,6368
2018-09-29T10:37:48.371Z,7444
2018-09-29T10:38:49.157Z,3796
2018-09-29T10:39:48.613Z,3628
2018-09-29T10:40:48.597Z,3652
2018-09-29T10:41:48.578Z,3720
2018-09-29T10:42:48.832Z,3740
2018-09-29T10:43:48.813Z,3716
2018-09-29T10:44:48.859Z,3692
2018-09-29T10:45:48.524Z,3700
2018-09-29T10:46:48.505Z,3764
2018-09-29T10:47:48.233Z,3872
2018-09-29T10:48:48.482Z,4096
2018-09-29T10:49:48.471Z,4428
2018-09-29T10:50:48.457Z,4268
2018-09-29T10:51:48.716Z,4116
2018-09-29T10:52:48.810Z,3976
2018-09-29T10:53:48.159Z,3876
2018-09-29T10:54:48.663Z,3936
2018-09-29T10:55:48.653Z,3980
2018-09-29T10:56:48.376Z,4084
2018-09-29T10:57:48.889Z,4664
2018-09-29T10:58:48.604Z,4568
2018-09-29T10:59:48.605Z,4736
2018-09-29T11:00:48.527Z,4552
2018-09-29T11:01:48.589Z,4772
2018-09-29T11:02:48.457Z,4976
2018-09-29T11:03:48.013Z,5824
2018-09-29T11:04:48.310Z,6672
2018-09-29T11:05:48.536Z,5996
2018-09-29T11:06:48.772Z,5544
2018-09-29T11:07:48.488Z,5260
2018-09-29T11:08:48.479Z,4968
2018-09-29T11:09:47.932Z,4864
2018-09-29T11:10:48.450Z,4912
2018-09-29T11:11:48.437Z,5128
2018-09-29T11:12:48.163Z,5140
2018-09-29T11:13:48.424Z,5084
2018-09-29T11:14:48.140Z,5296
2018-09-29T11:15:48.660Z,5168
2018-09-29T11:16:48.119Z,5216
2018-09-29T11:17:48.372Z,5196
2018-09-29T11:18:48.084Z,5224
2018-09-29T11:19:48.071Z,5212
2018-09-29T11:20:48.120Z,5548
2018-09-29T11:21:48.307Z,6180
2018-09-29T11:22:48.301Z,7328
2018-09-29T11:23:48.023Z,9140
2018-09-29T11:24:48.279Z,7948
2018-09-29T11:25:48.265Z,6640
2018-09-29T11:26:48.512Z,7200
2018-09-29T11:27:48.444Z,7436
2018-09-29T11:28:48.494Z,7580
2018-09-29T11:29:48.475Z,11804
2018-09-29T11:30:47.931Z,15456
2018-09-29T11:31:48.193Z,9248
2018-09-29T11:32:48.181Z,8688
2018-09-29T11:33:48.159Z,10756
2018-09-29T11:34:48.150Z,11632
2018-09-29T11:35:47.871Z,10232
2018-09-29T11:36:47.596Z,12052
2018-09-29T11:37:47.592Z,18848
2018-09-29T11:38:48.367Z,17024
2018-09-29T11:39:47.823Z,16032
2018-09-29T11:40:48.237Z,15136
2018-09-29T11:41:48.093Z,13360
2018-09-29T11:42:48.323Z,13244
2018-09-29T11:43:47.791Z,18496
2018-09-29T11:44:48.232Z,26016
2018-09-29T11:45:47.784Z,18240
2018-09-29T11:46:48.017Z,18240
2018-09-29T11:47:47.741Z,26944
2018-09-29T11:48:47.739Z,43232
2018-09-29T11:49:47.993Z,67200
2018-09-29T11:50:48.253Z,39360
2018-09-29T11:51:48.232Z,58560
2018-09-29T11:52:47.963Z,52928
2018-09-29T11:53:47.426Z,49184
2018-09-29T11:54:47.681Z,47648
2018-09-29T11:55:47.951Z,32800
2018-09-29T11:56:47.674Z,39360
2018-09-29T11:57:47.665Z,54880
2018-09-29T11:58:48.180Z,67296
2018-09-29T11:59:47.650Z,75616
2018-09-29T12:00:47.653Z,76032
2018-09-29T12:01:48.072Z,72448
2018-09-29T12:02:48.249Z,66048
2018-09-29T12:03:47.362Z,58624
2018-09-29T12:04:47.894Z,53824
2018-09-29T12:05:47.720Z,52384
2018-09-29T12:06:47.627Z,55392
2018-09-29T12:07:48.146Z,60736
2018-09-29T12:08:47.875Z,66848
2018-09-29T12:09:47.608Z,70592
2018-09-29T12:10:48.135Z,71104
2018-09-29T12:11:47.612Z,68288
2018-09-29T12:12:47.880Z,67168
2018-09-29T12:13:48.121Z,66592
2018-09-29T12:14:47.591Z,66912
2018-09-29T12:15:48.125Z,66656
2018-09-29T12:16:48.131Z,67616
2018-09-29T12:17:48.136Z,65504
2018-09-29T12:18:48.154Z,62144
2018-09-29T12:19:47.906Z,59840
2018-09-29T12:20:47.328Z,59680
2018-09-29T12:21:47.593Z,57984
2018-09-29T12:22:47.858Z,57568
2018-09-29T12:23:48.117Z,58464
2018-09-29T12:24:48.115Z,60800
2018-09-29T12:25:47.876Z,63680
2018-09-29T12:26:47.328Z,66464
2018-09-29T12:27:47.864Z,69024
2018-09-29T12:28:47.594Z,66880
2018-09-29T12:29:48.036Z,69760
2018-09-29T12:30:47.869Z,70752
2018-09-29T12:31:47.611Z,73152
2018-09-29T12:32:47.899Z,72544
2018-09-29T12:33:47.904Z,70624
2018-09-29T12:34:47.897Z,68544
2018-09-29T12:35:47.884Z,66912
2018-09-29T12:36:48.049Z,64096
2018-09-29T12:37:48.212Z,60224
2018-09-29T12:38:47.627Z,56864
2018-09-29T12:39:47.640Z,53792
2018-09-29T12:40:48.168Z,56768
2018-09-29T12:41:47.901Z,58688
2018-09-29T12:42:48.540Z,56032
2018-09-29T12:43:47.914Z,59136
2018-09-29T12:44:47.721Z,56928
2018-09-29T12:45:47.915Z,57696
2018-09-29T12:46:48.191Z,56672
2018-09-29T12:47:47.660Z,57536
2018-09-29T12:48:48.189Z,59968
2018-09-29T12:49:47.931Z,59968
2018-09-29T12:50:47.669Z,57952
2018-09-29T12:51:47.770Z,56000
2018-09-29T12:52:48.214Z,54528
2018-09-29T12:53:47.953Z,52960
2018-09-29T12:54:47.957Z,52800
2018-09-29T12:55:48.225Z,53472
2018-09-29T12:56:47.699Z,56736
2018-09-29T12:57:48.288Z,62560
2018-09-29T12:58:48.428Z,67424
2018-09-29T12:59:47.971Z,69248
2018-09-29T13:00:48.180Z,66432
2018-09-29T13:01:48.254Z,60096
2018-09-29T13:02:47.724Z,54816
2018-09-29T13:03:47.459Z,51456
2018-09-29T13:04:48.262Z,52096
2018-09-29T13:05:48.005Z,53120
2018-09-29T13:06:48.002Z,55904
2018-09-29T13:07:48.004Z,59072
2018-09-29T13:08:47.745Z,62816
2018-09-29T13:09:48.013Z,63392
2018-09-29T13:10:48.065Z,63968
2018-09-29T13:11:48.019Z,62400
2018-09-29T13:12:48.018Z,62112
2018-09-29T13:13:48.035Z,63744
2018-09-29T13:14:47.762Z,64704
2018-09-29T13:15:47.777Z,64768
2018-09-29T13:16:48.435Z,63296
2018-09-29T13:17:47.785Z,60928
2018-09-29T13:18:47.776Z,57760
2018-09-29T13:19:48.056Z,56064
2018-09-29T13:20:48.052Z,56256
2018-09-29T13:21:48.059Z,58048
2018-09-29T13:22:47.851Z,59104
2018-09-29T13:23:48.067Z,58624
2018-09-29T13:24:47.800Z,56512
2018-09-29T13:25:47.804Z,51424
2018-09-29T13:26:48.071Z,48640
2018-09-29T13:27:48.337Z,49216
2018-09-29T13:28:48.101Z,52608
2018-09-29T13:29:47.943Z,51840
2018-09-29T13:30:47.559Z,51168
2018-09-29T13:31:48.552Z,49504
2018-09-29T13:32:47.826Z,46880
2018-09-29T13:33:48.102Z,45856
2018-09-29T13:34:47.837Z,46688
2018-09-29T13:35:47.574Z,46848
2018-09-29T13:36:47.845Z,47968
2018-09-29T13:37:48.002Z,48000
2018-09-29T13:38:47.589Z,44256
2018-09-29T13:39:48.120Z,41632
2018-09-29T13:40:47.863Z,40128
2018-09-29T13:41:48.405Z,40832
2018-09-29T13:42:47.609Z,42560
2018-09-29T13:43:47.875Z,43744
2018-09-29T13:44:48.138Z,43136
2018-09-29T13:45:48.268Z,41952
2018-09-29T13:46:48.145Z,42976